Time;durP1;ratioP1;P1;durP2;ratioP2;P2;SDS_P1;SDS_P2;PMS_P1;PMS_P2;Temp;Humidity;BMP_temperature;BMP_pressure;BME280_temperature;BME280_humidity;BME280_pressure;Samples;Min_cycle;Max_cycle;Signal;HPM_P1;HPM_P2
2022/07/09 00:01:55;;;;;;;0.60;0.60;;;14.80;99.90;;;;;;4156799;28;20059;-83
2022/07/09 00:04:15;;;;;;;0.85;0.60;;;14.40;99.90;;;;;;4162775;28;20053;-83
2022/07/09 00:06:36;;;;;;;0.63;0.63;;;14.50;99.90;;;;;;4161288;28;20604;-83
2022/07/09 00:08:57;;;;;;;0.60;0.60;;;14.50;99.90;;;;;;4148539;28;20896;-84
2022/07/09 00:11:17;;;;;;;0.60;0.60;;;14.50;99.90;;;;;;4161277;28;20052;-83
2022/07/09 00:13:38;;;;;;;1.80;0.73;;;14.40;99.90;;;;;;4162306;28;20083;-83
2022/07/09 00:15:59;;;;;;;0.60;0.60;;;14.50;99.90;;;;;;4162996;28;20044;-83
2022/07/09 00:18:21;;;;;;;0.60;0.60;;;14.40;99.90;;;;;;4163507;28;20406;-83
2022/07/09 00:20:42;;;;;;;0.60;0.60;;;14.40;99.90;;;;;;4154880;28;20192;-83
2022/07/09 00:23:04;;;;;;;0.60;0.60;;;14.40;99.90;;;;;;4163479;28;20103;-83
2022/07/09 00:25:26;;;;;;;2.28;0.60;;;14.40;99.90;;;;;;4164113;28;20544;-83
2022/07/09 00:27:47;;;;;;;0.60;0.60;;;14.40;99.90;;;;;;4163350;28;20060;-83
2022/07/09 00:30:09;;;;;;;0.60;0.60;;;14.30;99.90;;;;;;4163752;28;20107;-83
2022/07/09 00:32:29;;;;;;;1.05;0.60;;;14.30;99.90;;;;;;4162405;28;20193;-83
2022/07/09 00:34:51;;;;;;;0.60;0.60;;;14.20;99.90;;;;;;4163854;28;20056;-84
2022/07/09 00:37:12;;;;;;;0.70;0.70;;;14.00;99.90;;;;;;4162040;28;20056;-83
2022/07/09 00:39:33;;;;;;;0.70;0.70;;;14.00;99.90;;;;;;4163262;28;20052;-83
2022/07/09 00:42:08;;;;;;;0.68;0.68;;;14.00;99.90;;;;;;4163757;28;20488;-83
2022/07/09 00:44:28;;;;;;;0.63;0.60;;;13.90;99.90;;;;;;4163422;28;20539;-83
2022/07/09 00:46:49;;;;;;;1.38;0.60;;;14.10;99.90;;;;;;4159779;28;20056;-83
2022/07/09 00:49:12;;;;;;;2.17;0.60;;;14.10;99.90;;;;;;4162439;28;20067;-84
2022/07/09 00:51:32;;;;;;;0.60;0.60;;;14.00;99.90;;;;;;4162468;28;20436;-83
2022/07/09 00:53:53;;;;;;;1.30;0.60;;;14.10;99.90;;;;;;4163423;28;20107;-83
2022/07/09 00:56:15;;;;;;;0.70;0.70;;;14.10;99.90;;;;;;4163045;28;20048;-83
2022/07/09 00:58:36;;;;;;;0.60;0.60;;;14.00;99.90;;;;;;4175492;28;20543;-83
2022/07/09 01:00:58;;;;;;;0.70;0.70;;;14.00;99.90;;;;;;4163444;28;20110;-83
2022/07/09 01:03:19;;;;;;;0.70;0.70;;;14.10;99.90;;;;;;4152452;28;20555;-83
2022/07/09 01:05:40;;;;;;;0.65;0.65;;;14.00;99.90;;;;;;4162160;28;20134;-83
2022/07/09 01:08:04;;;;;;;0.70;0.70;;;13.90;99.90;;;;;;4162028;28;20119;-83
2022/07/09 01:10:25;;;;;;;1.17;0.70;;;13.70;99.90;;;;;;4159053;28;20119;-83
2022/07/09 01:12:45;;;;;;;1.23;0.80;;;13.60;99.90;;;;;;4145830;28;20053;-83
2022/07/09 01:15:08;;;;;;;1.63;0.68;;;13.60;99.90;;;;;;4157033;28;20528;-83
2022/07/09 01:17:37;;;;;;;0.75;0.70;;;13.60;99.90;;;;;;4161494;28;20123;-84
2022/07/09 01:19:58;;;;;;;0.68;0.68;;;13.60;99.90;;;;;;4162839;28;20103;-83
2022/07/09 01:22:19;;;;;;;0.82;0.70;;;13.50;99.90;;;;;;4146625;28;20076;-83
2022/07/09 01:24:40;;;;;;;0.63;0.63;;;13.60;99.90;;;;;;4156440;28;20064;-83
2022/07/09 01:27:01;;;;;;;0.65;0.65;;;13.60;99.90;;;;;;4162710;28;20052;-83
2022/07/09 01:29:22;;;;;;;0.70;0.70;;;13.50;99.90;;;;;;4161596;28;20531;-83
2022/07/09 01:31:43;;;;;;;3.33;0.70;;;13.50;99.90;;;;;;4146030;28;20112;-84
2022/07/09 01:34:04;;;;;;;0.65;0.65;;;13.60;99.90;;;;;;4153639;28;20048;-83
2022/07/09 01:36:24;;;;;;;0.70;0.70;;;13.60;99.90;;;;;;4175712;28;20692;-84
2022/07/09 01:38:45;;;;;;;0.65;0.63;;;13.60;99.90;;;;;;4162290;28;20123;-83
2022/07/09 01:41:05;;;;;;;1.23;0.70;;;13.50;99.90;;;;;;4162174;28;20136;-83
2022/07/09 01:43:26;;;;;;;2.05;0.70;;;13.50;99.90;;;;;;4161420;28;20453;-83
2022/07/09 01:45:47;;;;;;;0.75;0.75;;;13.50;99.90;;;;;;4162739;28;20100;-83
2022/07/09 01:48:09;;;;;;;0.70;0.70;;;13.40;99.90;;;;;;4161420;28;20216;-83
2022/07/09 01:50:32;;;;;;;0.70;0.70;;;13.30;99.90;;;;;;4161231;28;20076;-83
2022/07/09 01:52:54;;;;;;;0.70;0.70;;;13.30;99.90;;;;;;4161487;28;20072;-84
2022/07/09 01:55:15;;;;;;;1.17;1.17;;;13.40;99.90;;;;;;4162632;28;20071;-83
2022/07/09 01:57:59;;;;;;;0.70;0.70;;;13.40;99.90;;;;;;4153396;28;20099;-83
2022/07/09 02:00:20;;;;;;;0.70;0.70;;;13.40;99.90;;;;;;4142426;28;20061;-83
2022/07/09 02:02:41;;;;;;;0.70;0.70;;;13.40;99.90;;;;;;4143824;28;20513;-83
2022/07/09 02:05:02;;;;;;;0.65;0.65;;;13.20;99.90;;;;;;4130090;28;20166;-83
2022/07/09 02:07:22;;;;;;;0.88;0.70;;;13.30;99.90;;;;;;4143507;28;20049;-83
2022/07/09 02:09:43;;;;;;;0.70;0.70;;;13.50;99.90;;;;;;4143488;28;20512;-83
2022/07/09 02:12:04;;;;;;;0.68;0.68;;;13.50;99.90;;;;;;4143906;28;20106;-83
2022/07/09 02:14:25;;;;;;;0.70;0.70;;;13.50;99.90;;;;;;4130245;28;20050;-83
2022/07/09 02:16:45;;;;;;;0.60;0.60;;;13.60;99.90;;;;;;4143964;28;20772;-83
2022/07/09 02:19:06;;;;;;;0.70;0.70;;;13.60;99.90;;;;;;4144049;28;20465;-84
2022/07/09 02:21:27;;;;;;;1.17;0.70;;;13.50;99.90;;;;;;4143686;28;20088;-83
2022/07/09 02:23:48;;;;;;;1.05;0.80;;;13.30;99.90;;;;;;4143968;28;20072;-83
2022/07/09 02:26:09;;;;;;;0.70;0.70;;;13.20;99.90;;;;;;4125802;28;20053;-83
2022/07/09 02:28:29;;;;;;;1.30;0.70;;;13.30;99.90;;;;;;4135650;28;20136;-83
2022/07/09 02:30:51;;;;;;;1.13;0.60;;;13.30;99.90;;;;;;4129825;28;20049;-83
2022/07/09 02:33:13;;;;;;;0.70;0.70;;;13.20;99.90;;;;;;4143892;28;20053;-83
2022/07/09 02:35:34;;;;;;;0.60;0.60;;;13.10;99.90;;;;;;4143957;28;20133;-83
2022/07/09 02:37:55;;;;;;;0.70;0.70;;;13.00;99.90;;;;;;4150274;28;20060;-83
2022/07/09 02:40:16;;;;;;;0.90;0.70;;;13.00;99.90;;;;;;4161117;28;20610;-83
2022/07/09 02:42:38;;;;;;;0.65;0.63;;;13.10;99.90;;;;;;4162295;28;20111;-83
2022/07/09 02:44:59;;;;;;;0.70;0.70;;;13.20;99.90;;;;;;4161841;28;20104;-83
2022/07/09 02:47:21;;;;;;;0.70;0.70;;;13.20;99.90;;;;;;4164267;28;20303;-83
2022/07/09 02:49:42;;;;;;;0.70;0.70;;;13.10;99.90;;;;;;4165019;28;20053;-83
2022/07/09 02:52:03;;;;;;;0.70;0.70;;;13.20;99.90;;;;;;4164282;28;20128;-83
2022/07/09 02:54:24;;;;;;;0.80;0.80;;;13.10;99.90;;;;;;4165051;28;20144;-83
2022/07/09 02:56:45;;;;;;;0.60;0.60;;;13.00;99.90;;;;;;4155283;28;20524;-83
2022/07/09 02:59:05;;;;;;;0.70;0.70;;;13.00;99.90;;;;;;4164383;28;20125;-85
2022/07/09 03:01:26;;;;;;;0.75;0.75;;;12.80;99.90;;;;;;4165265;28;20049;-83
2022/07/09 03:03:47;;;;;;;0.70;0.70;;;12.70;99.90;;;;;;4165372;28;20048;-83
2022/07/09 03:06:08;;;;;;;0.70;0.70;;;12.50;99.90;;;;;;4163065;28;20048;-83
2022/07/09 03:08:29;;;;;;;2.75;0.80;;;12.50;99.90;;;;;;4164939;28;20132;-83
2022/07/09 03:10:50;;;;;;;0.60;0.60;;;12.50;99.90;;;;;;4147532;28;20109;-83
2022/07/09 03:13:11;;;;;;;0.70;0.70;;;12.50;99.90;;;;;;4159259;28;20056;-83
2022/07/09 03:15:32;;;;;;;0.70;0.70;;;12.70;99.90;;;;;;4163423;28;20554;-83
2022/07/09 03:17:53;;;;;;;0.60;0.60;;;12.70;99.90;;;;;;4163622;28;20103;-83
2022/07/09 03:20:14;;;;;;;8.02;1.20;;;12.60;99.90;;;;;;4163780;28;20051;-83
2022/07/09 03:22:36;;;;;;;0.70;0.70;;;12.70;99.90;;;;;;4165053;28;20056;-83
2022/07/09 03:24:56;;;;;;;0.70;0.70;;;12.80;99.90;;;;;;4164845;28;20052;-83
2022/07/09 03:27:17;;;;;;;0.70;0.70;;;12.80;99.90;;;;;;4164746;28;20421;-83
2022/07/09 03:29:38;;;;;;;0.68;0.68;;;12.80;99.90;;;;;;4164791;28;20056;-83
2022/07/09 03:31:58;;;;;;;1.00;0.70;;;12.70;99.90;;;;;;4164434;28;20057;-83
2022/07/09 03:34:19;;;;;;;1.50;0.80;;;12.70;99.90;;;;;;4164769;28;20136;-83
2022/07/09 03:36:41;;;;;;;0.70;0.70;;;12.60;99.90;;;;;;4163541;28;20100;-84
2022/07/09 03:39:01;;;;;;;0.73;0.73;;;12.70;99.90;;;;;;4164691;28;20421;-84
2022/07/09 03:41:22;;;;;;;1.88;0.70;;;12.70;99.90;;;;;;4163428;28;20060;-83
2022/07/09 03:43:44;;;;;;;0.70;0.70;;;12.80;99.90;;;;;;4163615;28;20459;-83
2022/07/09 03:46:09;;;;;;;0.70;0.70;;;12.80;99.90;;;;;;4148775;28;20080;-83
2022/07/09 03:48:29;;;;;;;0.80;0.80;;;12.70;99.90;;;;;;4159299;28;20053;-83
2022/07/09 03:50:50;;;;;;;0.88;0.88;;;12.60;99.90;;;;;;4163459;28;20068;-83
2022/07/09 03:53:12;;;;;;;0.70;0.70;;;12.60;99.90;;;;;;4164622;28;20496;-84
2022/07/09 03:55:32;;;;;;;0.80;0.80;;;12.50;99.90;;;;;;4148227;28;20128;-83
2022/07/09 03:57:53;;;;;;;2.30;0.70;;;12.60;99.90;;;;;;4158882;28;20103;-83
2022/07/09 04:00:14;;;;;;;0.60;0.60;;;12.50;99.90;;;;;;4164339;28;20193;-84
2022/07/09 04:02:35;;;;;;;0.70;0.70;;;12.60;99.90;;;;;;4164195;28;20060;-84
2022/07/09 04:04:56;;;;;;;0.70;0.70;;;12.70;99.90;;;;;;4148360;28;20056;-83
2022/07/09 04:07:17;;;;;;;0.77;0.77;;;12.80;99.90;;;;;;4157464;28;20532;-83
2022/07/09 04:09:37;;;;;;;0.68;0.68;;;12.70;99.90;;;;;;4164306;28;20178;-83
2022/07/09 04:11:58;;;;;;;0.70;0.70;;;12.80;99.90;;;;;;4163803;28;20433;-83
2022/07/09 04:14:19;;;;;;;1.48;0.73;;;12.90;99.90;;;;;;4164174;28;20076;-83
2022/07/09 04:16:40;;;;;;;0.70;0.70;;;12.80;99.90;;;;;;4163885;28;20401;-84
2022/07/09 04:19:01;;;;;;;0.70;0.70;;;12.60;99.90;;;;;;4164401;28;20151;-83
2022/07/09 04:21:22;;;;;;;3.50;0.80;;;12.60;99.90;;;;;;4163055;28;20049;-84
2022/07/09 04:23:44;;;;;;;0.80;0.77;;;12.60;99.90;;;;;;4162925;28;20064;-84
2022/07/09 04:26:05;;;;;;;0.75;0.75;;;12.60;99.90;;;;;;4162335;28;20068;-84
2022/07/09 04:28:26;;;;;;;0.73;0.73;;;12.70;99.90;;;;;;4163782;28;20052;-84
2022/07/09 04:30:48;;;;;;;0.70;0.70;;;12.60;99.90;;;;;;4163759;28;20130;-83
2022/07/09 04:33:09;;;;;;;1.08;0.80;;;12.60;99.90;;;;;;4162883;28;20052;-84
2022/07/09 04:35:30;;;;;;;0.88;0.80;;;12.60;99.90;;;;;;4176735;28;20846;-83
2022/07/09 04:37:51;;;;;;;2.50;1.20;;;12.60;99.90;;;;;;4163837;28;20052;-83
2022/07/09 04:40:12;;;;;;;0.80;0.80;;;12.80;99.90;;;;;;4159847;28;20137;-83
2022/07/09 04:42:33;;;;;;;0.80;0.80;;;13.00;99.90;;;;;;4162424;28;20053;-84
2022/07/09 04:44:54;;;;;;;0.70;0.70;;;13.00;99.90;;;;;;4146115;28;20541;-83
2022/07/09 04:47:17;;;;;;;1.08;0.70;;;13.10;99.90;;;;;;4146596;28;20132;-83
2022/07/09 04:49:38;;;;;;;0.70;0.70;;;13.20;99.90;;;;;;4146397;28;20406;-83
2022/07/09 04:51:59;;;;;;;0.77;0.77;;;13.20;99.90;;;;;;4157216;28;20429;-83
2022/07/09 04:54:19;;;;;;;0.70;0.70;;;13.30;99.90;;;;;;4162512;28;20051;-83
2022/07/09 04:56:41;;;;;;;0.60;0.60;;;13.40;99.90;;;;;;4163268;28;20083;-83
2022/07/09 04:59:02;;;;;;;0.60;0.60;;;13.30;99.90;;;;;;4162166;28;20059;-83
2022/07/09 05:01:23;;;;;;;0.85;0.82;;;13.40;99.90;;;;;;4162442;28;20083;-84
2022/07/09 05:03:46;;;;;;;0.70;0.70;;;13.50;99.90;;;;;;4174970;28;20083;-83
2022/07/09 05:06:07;;;;;;;0.70;0.70;;;13.60;99.90;;;;;;4163022;28;20055;-84
2022/07/09 05:08:29;;;;;;;2.80;1.10;;;13.70;99.90;;;;;;4153574;28;20103;-84
2022/07/09 05:10:49;;;;;;;0.80;0.80;;;13.70;99.90;;;;;;4154360;28;20138;-83
2022/07/09 05:13:10;;;;;;;0.80;0.80;;;13.80;99.90;;;;;;4163114;28;20528;-83
2022/07/09 05:15:32;;;;;;;0.60;0.60;;;13.90;99.90;;;;;;4160295;28;20099;-83
2022/07/09 05:17:56;;;;;;;0.60;0.60;;;14.00;99.90;;;;;;4159100;28;20056;-84
2022/07/09 05:20:17;;;;;;;2.05;0.70;;;14.10;99.90;;;;;;4162255;28;20056;-86
2022/07/09 05:22:38;;;;;;;0.80;0.80;;;14.10;99.90;;;;;;4162410;28;20056;-84
2022/07/09 05:25:00;;;;;;;0.70;0.70;;;14.20;99.90;;;;;;4147184;28;20532;-85
2022/07/09 05:27:21;;;;;;;1.23;0.77;;;14.20;99.90;;;;;;4157876;28;20096;-84
2022/07/09 05:29:42;;;;;;;0.90;0.90;;;14.30;99.90;;;;;;4160713;28;20498;-85
2022/07/09 05:32:04;;;;;;;1.60;1.52;;;14.20;99.90;;;;;;4169811;28;20052;-85
2022/07/09 05:34:25;;;;;;;0.70;0.70;;;14.30;99.90;;;;;;4146891;28;20052;-85
2022/07/09 05:36:45;;;;;;;0.63;0.63;;;14.30;99.90;;;;;;4156921;28;20535;-85
2022/07/09 05:39:07;;;;;;;0.70;0.70;;;14.40;99.90;;;;;;4149708;28;20103;-85
2022/07/09 05:41:27;;;;;;;0.68;0.68;;;14.40;99.90;;;;;;4163078;28;20130;-85
2022/07/09 05:43:48;;;;;;;0.75;0.75;;;14.60;99.90;;;;;;4162685;28;20064;-84
2022/07/09 05:46:10;;;;;;;1.13;0.60;;;14.60;99.90;;;;;;4161927;28;20047;-85
2022/07/09 05:48:30;;;;;;;0.70;0.70;;;14.70;99.90;;;;;;4162811;28;21869;-85
2022/07/09 05:50:52;;;;;;;0.65;0.65;;;14.90;99.90;;;;;;4158499;28;20052;-85
2022/07/09 05:53:14;;;;;;;0.70;0.70;;;15.00;99.90;;;;;;4163997;28;20111;-85
2022/07/09 05:55:34;;;;;;;0.70;0.70;;;15.10;99.90;;;;;;4160408;28;20137;-81
2022/07/09 05:57:55;;;;;;;0.82;0.63;;;15.30;99.90;;;;;;4158806;28;20048;-81
2022/07/09 06:00:16;;;;;;;0.65;0.65;;;15.60;99.90;;;;;;4174023;28;20059;-81
2022/07/09 06:02:37;;;;;;;0.70;0.70;;;15.90;99.90;;;;;;4160107;28;20052;-81
2022/07/09 06:04:57;;;;;;;0.60;0.60;;;16.30;99.90;;;;;;4156233;28;20076;-81
2022/07/09 06:07:18;;;;;;;0.70;0.70;;;16.60;99.90;;;;;;4167454;28;20130;-81
2022/07/09 06:09:39;;;;;;;0.60;0.60;;;16.90;99.90;;;;;;4144311;28;20405;-80
2022/07/09 06:12:00;;;;;;;0.60;0.60;;;17.30;99.90;;;;;;4156315;28;20056;-81
2022/07/09 06:14:20;;;;;;;0.60;0.60;;;17.70;99.90;;;;;;4161106;28;20061;-81
2022/07/09 06:16:47;;;;;;;1.40;0.52;;;17.80;99.90;;;;;;4159445;28;20152;-81
2022/07/09 06:19:08;;;;;;;0.60;0.60;;;18.10;99.90;;;;;;4145316;28;20057;-81
2022/07/09 06:21:28;;;;;;;0.50;0.50;;;18.10;99.90;;;;;;4159666;28;20396;-81
2022/07/09 06:23:49;;;;;;;0.55;0.50;;;18.30;99.90;;;;;;4161836;28;20055;-81
2022/07/09 06:26:09;;;;;;;0.60;0.60;;;18.50;99.90;;;;;;4157622;28;20061;-81
2022/07/09 06:28:30;;;;;;;0.60;0.60;;;18.90;99.90;;;;;;4148446;28;20044;-81
2022/07/09 06:30:51;;;;;;;1.27;0.50;;;19.10;99.90;;;;;;4159338;28;20052;-81
2022/07/09 06:33:11;;;;;;;0.77;0.60;;;19.30;99.90;;;;;;4152432;28;20056;-81
2022/07/09 06:35:32;;;;;;;6.53;0.98;;;19.70;99.90;;;;;;4163757;28;20059;-81
2022/07/09 06:37:52;;;;;;;1.15;0.70;;;20.00;99.90;;;;;;4157515;28;20056;-81
2022/07/09 06:40:13;;;;;;;0.50;0.50;;;20.30;99.90;;;;;;4157719;28;20806;-81
2022/07/09 06:42:34;;;;;;;0.40;0.40;;;20.70;99.90;;;;;;4156493;28;20503;-81
2022/07/09 06:44:55;;;;;;;0.30;0.30;;;20.90;99.90;;;;;;4155621;28;20052;-81
2022/07/09 06:47:16;;;;;;;1.60;0.40;;;21.10;99.90;;;;;;4158109;28;20174;-81
2022/07/09 06:49:37;;;;;;;0.52;0.40;;;21.50;99.90;;;;;;4162699;28;20052;-81
2022/07/09 06:51:57;;;;;;;0.40;0.40;;;21.60;99.90;;;;;;4163464;28;20053;-81
2022/07/09 06:54:18;;;;;;;0.77;0.40;;;21.80;99.90;;;;;;4164254;28;20567;-81
2022/07/09 06:56:38;;;;;;;1.65;0.45;;;22.10;99.90;;;;;;4158680;28;20076;-81
2022/07/09 06:58:59;;;;;;;0.47;0.47;;;22.40;99.90;;;;;;4154881;28;20133;-81
2022/07/09 07:01:20;;;;;;;0.45;0.40;;;22.30;99.90;;;;;;4156712;28;20095;-81
2022/07/09 07:03:41;;;;;;;0.40;0.40;;;22.60;99.90;;;;;;4147948;28;20056;-81
2022/07/09 07:06:02;;;;;;;0.40;0.40;;;23.00;99.90;;;;;;4157468;28;20061;-81
2022/07/09 07:08:23;;;;;;;3.38;0.57;;;23.40;99.90;;;;;;4167770;28;20119;-81
2022/07/09 07:10:44;;;;;;;0.30;0.30;;;23.70;99.90;;;;;;4163864;28;20052;-81
2022/07/09 07:13:04;;;;;;;1.17;0.40;;;24.10;99.50;;;;;;4162931;28;20047;-81
2022/07/09 07:15:25;;;;;;;1.25;0.35;;;24.10;99.40;;;;;;4176700;28;20077;-81
2022/07/09 07:17:45;;;;;;;0.90;0.50;;;24.50;99.50;;;;;;4157546;28;20060;-81
2022/07/09 07:20:07;;;;;;;0.32;0.32;;;24.60;96.70;;;;;;4189564;28;20051;-81
2022/07/09 07:22:27;;;;;;;0.30;0.30;;;24.50;95.60;;;;;;4160104;28;20129;-81
2022/07/09 07:24:49;;;;;;;0.63;0.30;;;24.90;95.50;;;;;;4159442;28;20099;-81
2022/07/09 07:27:09;;;;;;;0.40;0.30;;;24.90;93.40;;;;;;4175855;28;20158;-81
2022/07/09 07:29:30;;;;;;;0.30;0.30;;;25.10;94.10;;;;;;4157055;28;20835;-81
2022/07/09 07:31:51;;;;;;;1.38;0.30;;;25.20;92.30;;;;;;4161734;28;20597;-81
2022/07/09 07:34:11;;;;;;;0.40;0.40;;;25.20;92.70;;;;;;4158135;28;20045;-81
2022/07/09 07:36:31;;;;;;;0.43;0.30;;;25.50;92.40;;;;;;4153296;28;20076;-81
2022/07/09 07:38:53;;;;;;;0.30;0.30;;;25.50;90.70;;;;;;4157937;28;20065;-81
2022/07/09 07:41:13;;;;;;;0.30;0.30;;;25.30;89.50;;;;;;4160462;28;20064;-81
2022/07/09 07:43:34;;;;;;;2.17;0.30;;;25.30;90.30;;;;;;4163377;28;20603;-81
2022/07/09 07:45:54;;;;;;;1.95;0.40;;;25.40;86.60;;;;;;4163941;28;20055;-81
2022/07/09 07:48:16;;;;;;;0.68;0.30;;;25.80;90.90;;;;;;4147156;28;20044;-81
2022/07/09 07:50:38;;;;;;;2.25;0.30;;;26.10;90.20;;;;;;4155435;28;20148;-81
2022/07/09 07:52:59;;;;;;;0.30;0.30;;;25.80;86.80;;;;;;4163267;28;20095;-81
2022/07/09 07:55:19;;;;;;;0.95;0.30;;;25.80;90.00;;;;;;4163168;28;20096;-82
2022/07/09 07:57:40;;;;;;;1.17;0.30;;;25.70;90.20;;;;;;4151983;28;20049;-81
2022/07/09 08:00:02;;;;;;;0.30;0.30;;;25.60;90.50;;;;;;4159048;28;20110;-81
2022/07/09 08:02:23;;;;;;;1.42;0.30;;;25.60;86.00;;;;;;4177270;28;20060;-81
2022/07/09 08:04:44;;;;;;;0.52;0.32;;;25.70;86.20;;;;;;4162406;28;20112;-81
2022/07/09 08:07:05;;;;;;;0.50;0.30;;;25.70;84.80;;;;;;4175718;28;20601;-81
2022/07/09 08:09:26;;;;;;;0.30;0.30;;;25.60;86.90;;;;;;4162752;28;20515;-81
2022/07/09 08:11:47;;;;;;;1.77;0.55;;;25.90;87.60;;;;;;4162157;28;20151;-81
2022/07/09 08:14:08;;;;;;;0.68;0.30;;;25.90;88.70;;;;;;4162065;28;20512;-81
2022/07/09 08:16:29;;;;;;;0.65;0.30;;;25.80;84.60;;;;;;4172518;28;20072;-81
2022/07/09 08:18:50;;;;;;;0.30;0.30;;;25.50;84.60;;;;;;4162867;28;20159;-81
2022/07/09 08:21:11;;;;;;;1.10;0.30;;;25.50;85.10;;;;;;4163177;28;20052;-81
2022/07/09 08:23:31;;;;;;;0.30;0.30;;;25.80;84.20;;;;;;4146793;28;20096;-81
2022/07/09 08:25:52;;;;;;;0.30;0.30;;;25.20;83.80;;;;;;4157098;28;20080;-81
2022/07/09 08:28:13;;;;;;;0.98;0.40;;;25.60;84.60;;;;;;4161763;28;20060;-81
2022/07/09 08:30:34;;;;;;;0.30;0.30;;;25.80;83.50;;;;;;4161741;28;20922;-81
2022/07/09 08:32:55;;;;;;;0.45;0.30;;;25.90;84.60;;;;;;4149384;28;20082;-81
2022/07/09 08:35:16;;;;;;;1.13;0.30;;;25.80;82.80;;;;;;4161664;28;20075;-82
2022/07/09 08:37:38;;;;;;;1.05;0.30;;;25.90;81.60;;;;;;4161402;28;20081;-83
2022/07/09 08:40:00;;;;;;;2.33;0.50;;;25.70;83.10;;;;;;4162977;28;20080;-83
2022/07/09 08:42:22;;;;;;;0.55;0.40;;;25.70;83.20;;;;;;4161963;28;20136;-83
2022/07/09 08:44:46;;;;;;;0.68;0.28;;;25.70;82.60;;;;;;4155481;28;20877;-84
2022/07/09 08:47:07;;;;;;;0.52;0.35;;;25.10;81.70;;;;;;4163188;28;20088;-83
2022/07/09 08:49:28;;;;;;;1.23;0.32;;;25.40;80.50;;;;;;4163242;28;20044;-83
2022/07/09 08:51:49;;;;;;;0.30;0.30;;;25.50;83.00;;;;;;4162713;28;20068;-83
2022/07/09 08:54:11;;;;;;;0.93;0.30;;;25.60;83.90;;;;;;4163188;28;20508;-83
2022/07/09 08:56:31;;;;;;;1.05;0.30;;;25.50;82.30;;;;;;4161681;28;20088;-83
2022/07/09 08:58:52;;;;;;;0.30;0.30;;;25.90;83.80;;;;;;4162909;28;20052;-83
2022/07/09 09:01:17;;;;;;;0.30;0.30;;;25.90;81.90;;;;;;4159786;28;20064;-83
2022/07/09 09:03:38;;;;;;;0.43;0.30;;;26.20;81.60;;;;;;4161741;28;20056;-83
2022/07/09 09:06:07;;;;;;;0.30;0.30;;;26.30;82.50;;;;;;4161858;28;20072;-83
2022/07/09 09:08:33;;;;;;;0.75;0.30;;;26.00;80.10;;;;;;4159010;28;20132;-83
2022/07/09 09:10:54;;;;;;;0.30;0.30;;;25.90;80.80;;;;;;4152380;28;20434;-83
2022/07/09 09:13:19;;;;;;;1.27;0.30;;;25.70;80.70;;;;;;4161369;28;20084;-83
2022/07/09 09:15:39;;;;;;;0.30;0.30;;;25.60;82.10;;;;;;4161295;28;20735;-83
2022/07/09 09:18:02;;;;;;;0.40;0.40;;;25.20;80.10;;;;;;4157685;28;20096;-84
2022/07/09 09:20:24;;;;;;;0.77;0.30;;;25.40;80.70;;;;;;4159356;28;20393;-83
2022/07/09 09:22:48;;;;;;;0.30;0.30;;;26.10;81.70;;;;;;4162379;28;20536;-84
2022/07/09 09:25:15;;;;;;;0.82;0.30;;;26.40;81.40;;;;;;4162811;28;20144;-83
2022/07/09 09:27:36;;;;;;;0.30;0.30;;;25.80;81.20;;;;;;4162332;28;20564;-83
2022/07/09 09:29:59;;;;;;;0.70;0.30;;;26.00;83.60;;;;;;4162552;28;20056;-83
2022/07/09 09:32:21;;;;;;;1.08;0.30;;;26.20;82.70;;;;;;4161538;28;20052;-83
2022/07/09 09:34:49;;;;;;;0.55;0.30;;;26.50;82.50;;;;;;4161600;28;20093;-83
2022/07/09 09:37:10;;;;;;;0.30;0.30;;;26.80;82.30;;;;;;4144825;28;20053;-83
2022/07/09 09:39:31;;;;;;;1.30;0.30;;;26.90;84.80;;;;;;4157969;28;20054;-84
2022/07/09 09:41:52;;;;;;;0.30;0.30;;;27.40;82.40;;;;;;4161467;28;20476;-83
2022/07/09 09:44:40;;;;;;;0.88;0.30;;;26.80;80.90;;;;;;4161327;28;20892;-83
2022/07/09 09:47:00;;;;;;;1.48;0.30;;;26.40;79.60;;;;;;4159594;28;20622;-84
2022/07/09 09:49:22;;;;;;;0.30;0.30;;;26.20;80.50;;;;;;4159624;28;20504;-83
2022/07/09 09:51:59;;;;;;;0.30;0.30;;;26.50;80.40;;;;;;4146133;28;20060;-84
2022/07/09 09:54:21;;;;;;;0.30;0.30;;;26.60;80.00;;;;;;4156326;28;21110;-84
2022/07/09 09:56:43;;;;;;;0.22;0.22;;;26.20;80.60;;;;;;4146227;28;20045;-83
2022/07/09 09:59:04;;;;;;;6.32;0.32;;;26.60;81.00;;;;;;4160225;28;20056;-83
2022/07/09 10:01:26;;;;;;;2.80;0.28;;;26.50;79.00;;;;;;4146161;28;20084;-83
2022/07/09 10:03:49;;;;;;;0.30;0.30;;;26.30;79.90;;;;;;4157697;28;20472;-83
2022/07/09 10:06:12;;;;;;;0.30;0.30;;;26.40;79.90;;;;;;4143510;28;20049;-83
2022/07/09 10:08:34;;;;;;;1.35;0.40;;;26.40;80.50;;;;;;4157064;28;20579;-83
2022/07/09 10:10:58;;;;;;;0.32;0.20;;;26.80;82.10;;;;;;4152828;28;20088;-83
2022/07/09 10:13:21;;;;;;;;;;;26.60;80.50;;;;;;4159661;28;20622;-83
2022/07/09 10:15:48;;;;;;;0.30;0.30;;;26.70;81.60;;;;;;4159969;28;19968;-83
2022/07/09 10:18:11;;;;;;;0.40;0.30;;;27.00;80.00;;;;;;4159744;28;20472;-83
2022/07/09 10:20:33;;;;;;;2.88;0.30;;;27.30;81.30;;;;;;4138711;28;20060;-83
2022/07/09 10:22:55;;;;;;;0.30;0.30;;;27.50;79.40;;;;;;4146042;28;20057;-83
2022/07/09 10:25:29;;;;;;;0.25;0.25;;;27.40;79.00;;;;;;4161930;28;20389;-83
2022/07/09 10:27:50;;;;;;;0.30;0.30;;;26.90;78.40;;;;;;4145358;28;20127;-82
2022/07/09 10:30:28;;;;;;;0.30;0.30;;;26.90;82.00;;;;;;4157666;28;20095;-82
2022/07/09 10:33:01;;;;;;;0.50;0.30;;;27.20;80.40;;;;;;4161144;28;20129;-81
2022/07/09 10:35:26;;;;;;;0.22;0.22;;;26.70;79.30;;;;;;4160261;28;20044;-83
2022/07/09 10:37:47;;;;;;;0.95;0.30;;;27.10;79.90;;;;;;4161624;28;20099;-83
2022/07/09 10:40:21;;;;;;;0.20;0.20;;;27.00;78.90;;;;;;4148294;28;20111;-83
2022/07/09 10:42:43;;;;;;;1.48;0.30;;;27.00;80.00;;;;;;4153074;28;20519;-82
2022/07/09 10:45:25;;;;;;;;;;;27.00;78.10;;;;;;4172937;28;20192;-82
2022/07/09 10:47:52;;;;;;;0.20;0.20;;;26.80;78.70;;;;;;4160017;28;19928;-84
2022/07/09 10:50:12;;;;;;;0.28;0.28;;;27.10;79.90;;;;;;4156343;28;20131;-84
2022/07/09 10:52:34;;;;;;;0.60;0.30;;;27.30;79.70;;;;;;4160554;28;20099;-83
2022/07/09 10:54:55;;;;;;;0.30;0.30;;;26.60;77.30;;;;;;4159656;28;20048;-83
2022/07/09 10:57:15;;;;;;;0.30;0.30;;;26.60;80.50;;;;;;4160347;28;20165;-83
2022/07/09 10:59:37;;;;;;;0.30;0.30;;;26.80;76.60;;;;;;4147602;28;20107;-85
2022/07/09 11:01:57;;;;;;;0.38;0.30;;;27.10;78.50;;;;;;4153172;28;20064;-84
2022/07/09 11:04:51;;;;;;;0.35;0.30;;;27.00;76.60;;;;;;4161253;28;20524;-84
2022/07/09 11:07:20;;;;;;;0.30;0.30;;;27.00;78.40;;;;;;4126856;28;20114;-83
2022/07/09 11:09:41;;;;;;;0.30;0.30;;;27.20;80.50;;;;;;4138184;28;20153;-83
2022/07/09 11:12:03;;;;;;;0.38;0.38;;;27.90;79.90;;;;;;4123851;28;20221;-84
2022/07/09 11:14:24;;;;;;;0.30;0.30;;;27.90;76.90;;;;;;4137089;28;20077;-83
2022/07/09 11:16:56;;;;;;;0.30;0.30;;;28.40;78.60;;;;;;4138039;28;20049;-84
2022/07/09 11:19:18;;;;;;;0.30;0.30;;;27.90;75.90;;;;;;4137018;28;20553;-83
2022/07/09 11:21:39;;;;;;;0.20;0.20;;;27.90;76.90;;;;;;4137819;28;20053;-83
2022/07/09 11:23:59;;;;;;;0.60;0.25;;;27.40;76.20;;;;;;4136984;28;20180;-84
2022/07/09 11:26:21;;;;;;;0.25;0.22;;;27.50;78.10;;;;;;4132626;28;20048;-84
2022/07/09 11:28:44;;;;;;;0.30;0.30;;;27.50;77.30;;;;;;4125603;28;20050;-83
2022/07/09 11:31:05;;;;;;;0.20;0.20;;;28.10;78.70;;;;;;4142714;28;20069;-83
2022/07/09 11:34:10;;;;;;;0.32;0.25;;;27.80;75.90;;;;;;4147077;28;20048;-82
2022/07/09 11:36:10;;;;;;;0.57;0.30;;;27.80;75.90;;;;;;4130674;28;20053;-84
2022/07/09 11:38:32;;;;;;;0.30;0.30;;;28.00;75.80;;;;;;4130654;28;20130;-83
2022/07/09 11:41:00;;;;;;;0.30;0.30;;;28.40;77.60;;;;;;4142006;28;20089;-83
2022/07/09 11:43:22;;;;;;;0.30;0.30;;;28.10;75.60;;;;;;4156261;28;20056;-83
2022/07/09 11:45:52;;;;;;;0.50;0.30;;;28.20;75.50;;;;;;4169538;28;20136;-84
2022/07/09 11:48:13;;;;;;;0.20;0.20;;;28.40;75.00;;;;;;4178636;28;20436;-84
2022/07/09 11:50:43;;;;;;;1.33;0.30;;;28.10;74.80;;;;;;4162965;28;20049;-84
2022/07/09 11:53:05;;;;;;;0.30;0.30;;;28.00;74.30;;;;;;4163997;28;20044;-84
2022/07/09 11:56:00;;;;;;;0.20;0.20;;;28.10;74.60;;;;;;4164030;28;20088;-84
2022/07/09 11:58:22;;;;;;;0.93;0.20;;;28.70;75.10;;;;;;4121369;28;20057;-84
2022/07/09 12:00:42;;;;;;;1.15;0.20;;;28.90;76.10;;;;;;4136256;28;20137;-84
2022/07/09 12:03:32;;;;;;;1.17;0.65;;;29.00;76.90;;;;;;4129966;28;20052;-84
2022/07/09 12:05:54;;;;;;;0.20;0.20;;;29.70;78.00;;;;;;4082911;29;20130;-84
2022/07/09 12:08:27;;;;;;;0.20;0.20;;;29.70;75.30;;;;;;4082490;29;20062;-84
2022/07/09 12:10:49;;;;;;;0.63;0.20;;;29.20;76.90;;;;;;4069104;29;20115;-84
2022/07/09 12:13:10;;;;;;;0.20;0.20;;;29.00;74.60;;;;;;4067056;29;20099;-84
2022/07/09 12:15:31;;;;;;;1.27;0.20;;;28.90;72.90;;;;;;4068978;29;20171;-84
2022/07/09 12:17:55;;;;;;;0.20;0.20;;;28.60;74.60;;;;;;4082304;29;20076;-85
2022/07/09 12:20:17;;;;;;;0.20;0.20;;;28.50;72.10;;;;;;4082436;29;20245;-84
2022/07/09 12:22:38;;;;;;;0.28;0.28;;;28.50;73.00;;;;;;4075907;29;20183;-84